createdAt,value
2019-05-12T00:01:55.100Z,6.17
2019-05-12T00:05:01.733Z,6.18
2019-05-12T00:08:08.549Z,6.21
2019-05-12T00:11:15.260Z,6.13
2019-05-12T00:14:21.797Z,6.16
2019-05-12T00:17:28.501Z,6.15
2019-05-12T00:20:34.832Z,6.11
2019-05-12T00:23:59.122Z,6.10
2019-05-12T00:27:08.546Z,6.17
2019-05-12T00:30:33.241Z,5.96
2019-05-12T00:33:39.887Z,6.04
2019-05-12T00:36:48.550Z,5.92
2019-05-12T00:39:54.727Z,6.02
2019-05-12T00:43:01.171Z,5.95
2019-05-12T00:46:09.196Z,6.03
2019-05-12T00:49:18.455Z,6.01
2019-05-12T00:52:24.226Z,5.99
2019-05-12T00:55:31.252Z,5.92
2019-05-12T00:58:39.210Z,5.84
2019-05-12T01:01:48.044Z,5.94
2019-05-12T01:04:53.909Z,5.94
2019-05-12T01:08:00.416Z,5.73
2019-05-12T01:11:08.750Z,5.79
2019-05-12T01:14:15.055Z,5.85
2019-05-12T01:17:21.509Z,5.63
2019-05-12T01:20:28.494Z,5.68
2019-05-12T01:23:35.238Z,5.65
2019-05-12T01:26:41.733Z,5.73
2019-05-12T01:29:48.227Z,5.69
2019-05-12T01:32:54.913Z,5.69
2019-05-12T01:36:01.364Z,5.79
2019-05-12T01:39:09.997Z,5.54
2019-05-12T01:42:18.096Z,5.62
2019-05-12T01:45:24.681Z,5.65
2019-05-12T01:48:32.234Z,5.61
2019-05-12T01:51:38.772Z,5.59
2019-05-12T01:54:45.382Z,5.57
2019-05-12T01:57:51.842Z,5.68
2019-05-12T02:00:59.307Z,5.67
2019-05-12T02:04:07.770Z,5.84
2019-05-12T02:07:14.289Z,5.65
2019-05-12T02:10:21.649Z,5.69
2019-05-12T02:13:28.054Z,5.76
2019-05-12T02:16:34.606Z,5.71
2019-05-12T02:19:41.106Z,5.74
2019-05-12T02:22:48.627Z,5.60
2019-05-12T02:25:55.074Z,5.83
2019-05-12T02:29:01.637Z,5.70
2019-05-12T02:32:08.106Z,5.86
2019-05-12T02:35:16.506Z,5.85
2019-05-12T02:38:25.147Z,5.73
2019-05-12T02:41:34.366Z,5.78
2019-05-12T02:44:39.534Z,5.67
2019-05-12T02:47:46.151Z,5.72
2019-05-12T02:50:54.494Z,5.83
2019-05-12T02:54:01.275Z,5.66
2019-05-12T02:57:08.186Z,5.52
2019-05-12T03:00:15.922Z,5.55
2019-05-12T03:03:25.264Z,5.67
2019-05-12T03:06:36.166Z,5.63
2019-05-12T03:09:44.696Z,5.69
2019-05-12T03:12:50.739Z,5.68
2019-05-12T03:15:57.229Z,5.73
2019-05-12T03:19:05.011Z,5.62
2019-05-12T03:22:14.168Z,5.82
2019-05-12T03:25:24.976Z,5.75
2019-05-12T03:28:28.292Z,5.65
2019-05-12T03:31:39.777Z,5.71
2019-05-12T03:34:47.277Z,5.68
2019-05-12T03:37:51.213Z,5.78
2019-05-12T03:40:57.754Z,5.93
2019-05-12T03:44:05.265Z,5.97
2019-05-12T03:47:14.497Z,5.83
2019-05-12T03:50:20.261Z,5.84
2019-05-12T03:53:26.732Z,5.96
2019-05-12T03:56:34.470Z,6.01
2019-05-12T03:59:41.195Z,6.06
2019-05-12T04:02:47.616Z,6.02
2019-05-12T04:05:55.516Z,6.08
2019-05-12T04:09:04.587Z,5.85
2019-05-12T04:12:10.001Z,6.08
2019-05-12T04:15:16.966Z,6.05
2019-05-12T04:18:24.725Z,5.87
2019-05-12T04:21:34.709Z,5.91
2019-05-12T04:24:39.963Z,5.89
2019-05-12T04:27:46.484Z,5.82
2019-05-12T04:30:54.561Z,5.84
2019-05-12T04:34:05.152Z,5.82
2019-05-12T04:37:10.377Z,5.84
2019-05-12T04:40:16.981Z,5.80
2019-05-12T04:43:25.485Z,5.86
2019-05-12T04:46:34.594Z,5.80
2019-05-12T04:49:39.846Z,5.80
2019-05-12T04:52:46.284Z,5.91
2019-05-12T04:56:07.392Z,5.89
2019-05-12T04:59:04.689Z,6.02
2019-05-12T05:02:09.388Z,5.95
2019-05-12T05:05:16.346Z,5.93
2019-05-12T05:08:24.521Z,5.90
2019-05-12T05:11:31.129Z,5.81
2019-05-12T05:14:37.646Z,5.87
2019-05-12T05:17:44.384Z,5.89
2019-05-12T05:20:50.815Z,5.86
2019-05-12T05:23:57.345Z,5.91
2019-05-12T05:27:04.375Z,5.86
2019-05-12T05:30:13.713Z,5.77
2019-05-12T05:33:20.070Z,5.82
2019-05-12T05:36:26.658Z,5.84
2019-05-12T05:39:35.673Z,5.82
2019-05-12T05:42:43.930Z,5.87
2019-05-12T05:45:56.162Z,5.99
2019-05-12T05:48:58.078Z,5.97
2019-05-12T05:52:04.642Z,5.97
2019-05-12T05:55:19.869Z,6.01
2019-05-12T05:58:19.888Z,5.97
2019-05-12T06:01:26.405Z,5.97
2019-05-12T06:04:34.144Z,6.11
2019-05-12T06:07:41.060Z,6.03
2019-05-12T06:10:47.803Z,5.95
2019-05-12T06:13:54.275Z,5.99
2019-05-12T06:17:00.975Z,5.88
2019-05-12T06:20:08.126Z,5.83
2019-05-12T06:23:14.975Z,5.77
2019-05-12T06:26:30.978Z,5.76
2019-05-12T06:29:30.091Z,5.86
2019-05-12T06:32:41.269Z,5.86
2019-05-12T06:35:45.393Z,5.88
2019-05-12T06:38:54.151Z,5.85
2019-05-12T06:42:08.654Z,5.87
2019-05-12T06:45:09.653Z,5.86
2019-05-12T06:48:19.279Z,5.93
2019-05-12T06:51:25.916Z,5.88
2019-05-12T06:54:33.530Z,5.96
2019-05-12T06:57:44.885Z,5.94
2019-05-12T07:00:48.427Z,5.96
2019-05-12T07:03:55.146Z,5.84
2019-05-12T07:07:03.650Z,5.80
2019-05-12T07:10:13.010Z,5.85
2019-05-12T07:13:23.184Z,5.94
2019-05-12T07:16:30.065Z,5.95
2019-05-12T07:19:34.576Z,5.89
2019-05-12T07:22:45.831Z,6.03
2019-05-12T07:25:50.477Z,5.88
2019-05-12T07:28:57.005Z,5.87
2019-05-12T07:32:07.140Z,6.01
2019-05-12T07:35:11.889Z,5.95
2019-05-12T07:38:21.303Z,6.02
2019-05-12T07:41:27.925Z,6.06
2019-05-12T07:44:40.054Z,6.15
2019-05-12T07:47:45.042Z,6.12
2019-05-12T07:50:58.448Z,6.08
2019-05-12T07:53:59.994Z,6.21
2019-05-12T07:57:11.864Z,6.29
2019-05-12T08:00:21.269Z,6.39
2019-05-12T08:03:24.963Z,6.15
2019-05-12T08:06:34.709Z,6.27
2019-05-12T08:09:39.525Z,6.11
2019-05-12T08:12:46.116Z,6.14
2019-05-12T08:15:56.177Z,5.97
2019-05-12T08:19:03.907Z,6.26
2019-05-12T08:22:10.911Z,6.36
2019-05-12T08:25:18.850Z,6.31
2019-05-12T08:28:34.831Z,6.38
2019-05-12T08:31:40.164Z,6.28
2019-05-12T08:34:43.761Z,6.22
2019-05-12T08:37:50.255Z,6.19
2019-05-12T08:40:56.724Z,6.27
2019-05-12T08:44:04.585Z,6.46
2019-05-12T08:47:12.043Z,6.51
2019-05-12T08:50:23.072Z,6.54
2019-05-12T08:53:28.026Z,6.60
2019-05-12T08:56:35.663Z,6.54
2019-05-12T08:59:44.144Z,6.48
2019-05-12T09:02:51.027Z,6.55
2019-05-12T09:05:57.719Z,6.57
2019-05-12T09:09:07.438Z,6.83
2019-05-12T09:12:14.144Z,6.83
2019-05-12T09:15:20.813Z,6.66
2019-05-12T09:18:33.621Z,6.69
2019-05-12T09:21:37.180Z,6.91
2019-05-12T09:24:44.157Z,6.98
2019-05-12T09:27:50.861Z,6.93
2019-05-12T09:30:57.455Z,6.92
2019-05-12T09:34:11.636Z,7.34
2019-05-12T09:37:14.228Z,7.51
2019-05-12T09:40:22.816Z,7.51
2019-05-12T09:43:29.443Z,7.38
2019-05-12T09:46:37.576Z,7.48
2019-05-12T09:49:44.518Z,7.52
2019-05-12T09:52:54.978Z,7.55
2019-05-12T09:55:59.286Z,7.62
2019-05-12T09:59:17.265Z,7.63
2019-05-12T10:02:19.003Z,7.96
2019-05-12T10:05:24.549Z,8.00
2019-05-12T10:08:35.829Z,7.76
2019-05-12T10:11:44.748Z,7.98
2019-05-12T10:14:50.595Z,8.31
2019-05-12T10:18:00.138Z,8.66
2019-05-12T10:21:10.019Z,8.26
2019-05-12T10:24:14.908Z,8.16
2019-05-12T10:27:30.121Z,8.55
2019-05-12T10:30:31.000Z,8.81
2019-05-12T10:33:37.599Z,8.86
2019-05-12T10:36:48.995Z,8.98
2019-05-12T10:39:55.428Z,9.46
2019-05-12T10:43:04.167Z,9.08
2019-05-12T10:46:10.279Z,9.31
2019-05-12T10:49:16.958Z,9.28
2019-05-12T10:52:24.428Z,9.43
2019-05-12T10:55:32.922Z,9.31
2019-05-12T10:58:39.643Z,9.54
2019-05-12T11:01:49.029Z,9.05
2019-05-12T11:04:54.597Z,9.21
2019-05-12T11:08:06.386Z,9.72
2019-05-12T11:11:09.214Z,10.23
2019-05-12T11:14:20.313Z,9.90
2019-05-12T11:17:24.550Z,9.79
2019-05-12T11:20:34.037Z,9.93
2019-05-12T11:23:39.759Z,10.25
2019-05-12T11:26:46.174Z,10.27
2019-05-12T11:29:53.778Z,9.87
2019-05-12T11:33:00.274Z,9.86
2019-05-12T11:36:07.852Z,10.29
2019-05-12T11:39:14.370Z,10.31
2019-05-12T11:42:20.810Z,9.82
2019-05-12T11:45:27.375Z,10.34
2019-05-12T11:48:34.165Z,10.54
2019-05-12T11:51:40.618Z,10.34
2019-05-12T11:54:51.179Z,10.31
2019-05-12T11:58:00.326Z,10.23
2019-05-12T12:01:08.360Z,10.78
2019-05-12T12:04:15.050Z,10.52
2019-05-12T12:07:23.803Z,10.30
2019-05-12T12:10:35.463Z,10.54
2019-05-12T12:13:38.310Z,10.74
2019-05-12T12:16:51.691Z,10.82
2019-05-12T12:19:56.125Z,10.79
2019-05-12T12:23:08.794Z,11.02
2019-05-12T12:26:13.333Z,10.83
2019-05-12T12:29:20.010Z,10.83
2019-05-12T12:32:26.583Z,10.76
2019-05-12T12:35:34.521Z,10.78
2019-05-12T12:38:41.359Z,11.40
2019-05-12T12:41:56.390Z,11.07
2019-05-12T12:44:58.923Z,10.95
2019-05-12T12:48:06.798Z,11.19
2019-05-12T12:51:17.365Z,11.24
2019-05-12T12:54:21.922Z,11.40
2019-05-12T12:57:28.383Z,11.44
2019-05-12T13:00:46.841Z,11.23
2019-05-12T13:03:43.536Z,11.03
2019-05-12T13:06:54.228Z,11.50
2019-05-12T13:10:04.697Z,11.77
2019-05-12T13:13:08.363Z,11.51
2019-05-12T13:16:15.998Z,11.77
2019-05-12T13:19:23.775Z,12.11
2019-05-12T13:22:33.713Z,11.90
2019-05-12T13:25:48.503Z,11.71
2019-05-12T13:28:53.412Z,11.78
2019-05-12T13:31:57.867Z,11.72
2019-05-12T13:35:09.665Z,12.17
2019-05-12T13:38:14.473Z,11.89
2019-05-12T13:41:21.185Z,12.11
2019-05-12T13:44:30.304Z,11.88
2019-05-12T13:52:26.259Z,11.68
2019-05-12T13:55:30.126Z,11.95
2019-05-12T13:58:42.609Z,12.26
2019-05-12T14:02:36.479Z,12.27
2019-05-12T14:05:50.489Z,12.05
2019-05-12T14:08:53.836Z,12.23
2019-05-12T14:12:00.528Z,12.53
2019-05-12T14:15:07.754Z,12.30
2019-05-12T14:18:19.249Z,12.38
2019-05-12T14:21:24.436Z,12.61
2019-05-12T14:24:33.256Z,12.03
2019-05-12T14:27:39.558Z,12.03
2019-05-12T14:30:51.705Z,12.11
2019-05-12T14:33:57.267Z,12.14
2019-05-12T14:37:10.032Z,12.37
2019-05-12T14:40:13.386Z,12.75
2019-05-12T14:43:21.844Z,12.41
2019-05-12T14:46:28.149Z,12.05
2019-05-12T14:49:34.814Z,12.04
2019-05-12T14:52:41.204Z,12.08
2019-05-12T14:55:50.726Z,12.27
2019-05-12T14:59:00.763Z,12.36
2019-05-12T15:02:06.675Z,12.30
2019-05-12T15:05:14.771Z,12.51
2019-05-12T15:08:21.682Z,12.18
2019-05-12T15:11:29.374Z,12.37
2019-05-12T15:14:37.889Z,12.44
2019-05-12T15:17:46.866Z,12.31
2019-05-12T15:20:54.388Z,12.63
2019-05-12T15:24:03.776Z,12.74
2019-05-12T15:27:09.743Z,12.67
2019-05-12T15:30:23.650Z,12.31
2019-05-12T15:33:25.353Z,11.88
2019-05-12T15:36:33.629Z,12.02
2019-05-12T15:39:40.314Z,11.87
2019-05-12T15:42:47.130Z,11.84
2019-05-12T15:45:56.750Z,11.94
2019-05-12T15:49:03.461Z,11.91
2019-05-12T15:52:14.025Z,11.84
2019-05-12T15:55:25.406Z,11.75
2019-05-12T15:58:28.149Z,11.71
2019-05-12T16:01:34.964Z,11.76
2019-05-12T16:04:44.453Z,11.68
2019-05-12T16:07:49.996Z,11.67
2019-05-12T16:10:56.521Z,11.61
2019-05-12T16:14:03.288Z,11.62
2019-05-12T16:17:10.938Z,11.56
2019-05-12T16:20:18.669Z,11.55
2019-05-12T16:23:30.173Z,11.53
2019-05-12T16:26:34.504Z,11.67
2019-05-12T16:29:45.389Z,11.61
2019-05-12T16:32:49.350Z,11.54
2019-05-12T16:36:00.032Z,11.54
2019-05-12T16:39:07.765Z,11.56
2019-05-12T16:42:14.828Z,11.61
2019-05-12T16:45:23.465Z,11.57
2019-05-12T16:48:33.234Z,11.50
2019-05-12T16:51:38.044Z,11.46
2019-05-12T16:54:47.555Z,11.45
2019-05-12T16:57:56.163Z,11.44
2019-05-12T17:01:03.732Z,11.33
2019-05-12T17:04:10.447Z,11.30
2019-05-12T17:07:20.675Z,11.34
2019-05-12T17:10:25.166Z,11.30
2019-05-12T17:13:33.606Z,11.31
2019-05-12T17:16:45.118Z,11.27
2019-05-12T17:19:49.251Z,11.24
2019-05-12T17:22:59.826Z,11.21
2019-05-12T17:26:04.030Z,11.12
2019-05-12T17:29:10.546Z,11.10
2019-05-12T17:32:17.042Z,11.08
2019-05-12T17:35:29.301Z,11.03
2019-05-12T17:38:34.118Z,10.99
2019-05-12T17:41:42.809Z,10.96
2019-05-12T17:44:48.765Z,10.91
2019-05-12T17:48:02.971Z,10.87
2019-05-12T17:51:03.459Z,10.84
2019-05-12T17:54:13.306Z,10.78
2019-05-12T17:57:20.035Z,10.77
2019-05-12T18:00:26.725Z,10.74
2019-05-12T18:03:39.205Z,10.76
2019-05-12T18:06:44.603Z,10.72
2019-05-12T18:09:56.682Z,10.72
2019-05-12T18:12:59.374Z,10.77
2019-05-12T18:16:11.369Z,10.74
2019-05-12T18:19:19.515Z,10.73
2019-05-12T18:22:25.817Z,10.73
2019-05-12T18:25:32.455Z,10.70
2019-05-12T18:28:39.005Z,10.68
2019-05-12T18:31:48.659Z,10.59
2019-05-12T18:34:55.157Z,10.54
2019-05-12T18:38:01.786Z,10.51
2019-05-12T18:41:08.483Z,10.49
2019-05-12T18:44:25.001Z,10.45
2019-05-12T18:47:31.629Z,10.44
2019-05-12T18:50:34.274Z,10.42
2019-05-12T18:53:39.874Z,10.36
2019-05-12T18:56:52.446Z,10.31
2019-05-12T19:00:01.526Z,10.23
2019-05-12T19:03:09.820Z,10.16
2019-05-12T19:06:14.223Z,10.13
2019-05-12T19:09:20.838Z,10.16
2019-05-12T19:12:32.120Z,10.12
2019-05-12T19:15:35.800Z,10.09
2019-05-12T19:18:42.569Z,9.99
2019-05-12T19:21:58.855Z,9.96
2019-05-12T19:24:59.994Z,9.91
2019-05-12T19:28:10.423Z,9.89
2019-05-12T19:31:14.401Z,9.87
2019-05-12T19:34:25.171Z,9.86
2019-05-12T19:37:30.042Z,9.81
2019-05-12T19:40:36.816Z,9.74
2019-05-12T19:43:47.868Z,9.66
2019-05-12T19:46:53.956Z,9.64
2019-05-12T19:50:07.241Z,9.64
2019-05-12T19:53:10.357Z,9.58
2019-05-12T19:56:18.876Z,9.53
2019-05-12T19:59:25.289Z,9.51
2019-05-12T20:02:34.066Z,9.49
2019-05-12T20:05:39.969Z,9.39
2019-05-12T20:08:55.683Z,9.37
2019-05-12T20:12:01.170Z,9.41
2019-05-12T20:15:07.102Z,9.34
2019-05-12T20:18:14.736Z,9.28
2019-05-12T20:21:26.156Z,9.13
2019-05-12T20:24:29.569Z,9.10
2019-05-12T20:27:36.817Z,9.08
2019-05-12T20:30:43.855Z,9.08
2019-05-12T20:34:52.098Z,9.04
2019-05-12T20:37:57.517Z,8.97
2019-05-12T20:41:04.835Z,8.95
2019-05-12T20:44:17.318Z,8.90
2019-05-12T20:47:19.871Z,8.79
2019-05-12T20:50:33.072Z,8.82
2019-05-12T20:53:36.726Z,8.76
2019-05-12T20:56:43.502Z,8.69
2019-05-12T20:59:50.605Z,8.54
2019-05-12T21:02:57.229Z,8.51
2019-05-12T21:06:04.486Z,8.51
2019-05-12T21:09:11.088Z,8.39
2019-05-12T21:12:17.688Z,8.32
2019-05-12T21:15:27.733Z,8.41
2019-05-12T21:18:46.164Z,8.23
2019-05-12T21:21:40.620Z,8.17
2019-05-12T21:24:47.755Z,8.17
2019-05-12T21:28:02.683Z,8.08
2019-05-12T21:31:03.724Z,8.04
2019-05-12T21:34:20.564Z,7.63
2019-05-12T21:37:18.482Z,7.28
2019-05-12T21:40:30.341Z,7.45
2019-05-12T21:43:33.562Z,7.29
2019-05-12T21:46:46.983Z,6.87
2019-05-12T21:49:55.054Z,7.01
2019-05-12T21:53:01.180Z,7.23
2019-05-12T21:56:07.627Z,7.11
2019-05-12T21:59:15.636Z,7.01
2019-05-12T22:02:26.193Z,6.82
2019-05-12T22:05:48.031Z,6.63
2019-05-12T22:08:38.946Z,6.87
2019-05-12T22:11:51.002Z,6.67
2019-05-12T22:14:54.439Z,6.58
2019-05-12T22:18:01.929Z,6.28
2019-05-12T22:21:09.243Z,6.59
2019-05-12T22:24:17.818Z,6.43
2019-05-12T22:27:27.226Z,6.13
2019-05-12T22:30:34.874Z,6.03
2019-05-12T22:33:51.500Z,5.70
2019-05-12T22:36:55.513Z,5.91
2019-05-12T22:39:57.830Z,5.88
2019-05-12T22:43:07.060Z,5.87
2019-05-12T22:46:16.193Z,5.58
2019-05-12T22:49:21.398Z,5.67
2019-05-12T22:52:28.256Z,5.57
2019-05-12T22:55:36.194Z,5.55
2019-05-12T22:58:47.113Z,5.00
2019-05-12T23:01:54.283Z,5.41
2019-05-12T23:05:03.624Z,5.51
2019-05-12T23:08:09.463Z,5.86
2019-05-12T23:11:17.530Z,5.66
2019-05-12T23:14:25.104Z,5.11
2019-05-12T23:17:33.503Z,5.07
2019-05-12T23:20:39.940Z,5.07
2019-05-12T23:23:50.028Z,4.63
2019-05-12T23:26:57.015Z,5.08
2019-05-12T23:30:10.845Z,4.83
2019-05-12T23:33:14.092Z,4.63
2019-05-12T23:36:35.016Z,4.36
2019-05-12T23:39:32.427Z,5.04
2019-05-12T23:42:39.847Z,4.99
2019-05-12T23:45:49.461Z,4.85
2019-05-12T23:48:55.953Z,4.63
2019-05-12T23:52:05.589Z,4.35
2019-05-12T23:55:13.844Z,4.75
2019-05-12T23:58:20.514Z,4.69
